createdAt,value
2019-05-12T00:01:32.064Z,3.43
2019-05-12T00:04:02.999Z,4.10
2019-05-12T00:06:33.849Z,3.40
2019-05-12T00:09:08.373Z,3.60
2019-05-12T00:11:38.894Z,3.60
2019-05-12T00:14:09.719Z,3.63
2019-05-12T00:16:40.579Z,3.63
2019-05-12T00:19:11.373Z,3.20
2019-05-12T00:21:42.129Z,3.63
2019-05-12T00:24:13.064Z,3.33
2019-05-12T00:26:44.458Z,3.90
2019-05-12T00:29:15.287Z,4.70
2019-05-12T00:31:47.787Z,3.00
2019-05-12T00:34:18.879Z,1.93
2019-05-12T00:36:49.853Z,2.20
2019-05-12T00:39:20.968Z,3.63
2019-05-12T00:41:52.139Z,2.27
2019-05-12T00:44:23.028Z,2.10
2019-05-12T00:46:54.269Z,3.27
2019-05-12T00:49:25.180Z,2.27
2019-05-12T00:51:56.015Z,2.83
2019-05-12T00:54:28.500Z,2.67
2019-05-12T00:56:59.594Z,2.80
2019-05-12T00:59:30.338Z,2.83
2019-05-12T01:02:01.089Z,2.73
2019-05-12T01:04:31.874Z,5.80
2019-05-12T01:07:02.668Z,2.93
2019-05-12T01:09:33.578Z,4.07
2019-05-12T01:12:04.524Z,3.00
2019-05-12T01:14:35.358Z,2.70
2019-05-12T01:17:08.276Z,2.70
2019-05-12T01:19:40.487Z,2.93
2019-05-12T01:22:11.411Z,2.50
2019-05-12T01:24:42.264Z,4.07
2019-05-12T01:27:13.059Z,3.27
2019-05-12T01:29:44.005Z,4.20
2019-05-12T01:32:29.823Z,1.50
2019-05-12T01:35:00.719Z,2.90
2019-05-12T01:37:31.594Z,4.60
2019-05-12T01:40:02.380Z,2.13
2019-05-12T01:42:33.240Z,2.33
2019-05-12T01:45:03.975Z,3.07
2019-05-12T01:47:34.789Z,3.00
2019-05-12T01:50:08.746Z,1.80
2019-05-12T01:52:38.836Z,1.83
2019-05-12T01:55:10.009Z,3.87
2019-05-12T01:57:40.803Z,2.13
2019-05-12T02:00:12.783Z,2.63
2019-05-12T02:02:43.726Z,2.77
2019-05-12T02:05:14.659Z,1.90
2019-05-12T02:07:58.316Z,2.17
2019-05-12T02:10:29.006Z,2.00
2019-05-12T02:13:00.125Z,3.80
2019-05-12T02:15:31.264Z,1.70
2019-05-12T02:18:02.099Z,4.73
2019-05-12T02:20:33.044Z,2.10
2019-05-12T02:23:03.798Z,2.27
2019-05-12T02:25:34.694Z,2.17
2019-05-12T02:28:05.601Z,2.40
2019-05-12T02:30:40.712Z,2.30
2019-05-12T02:33:08.840Z,2.83
2019-05-12T02:35:39.884Z,1.90
2019-05-12T02:38:10.795Z,2.17
2019-05-12T02:40:44.697Z,2.73
2019-05-12T02:43:15.441Z,2.50
2019-05-12T02:45:46.880Z,1.80
2019-05-12T02:48:17.785Z,3.53
2019-05-12T02:50:48.588Z,4.60
2019-05-12T02:53:19.840Z,3.17
2019-05-12T02:55:59.130Z,2.93
2019-05-12T02:58:34.257Z,3.40
2019-05-12T03:01:05.706Z,2.43
2019-05-12T03:03:38.220Z,3.40
2019-05-12T03:06:09.084Z,2.10
2019-05-12T03:08:40.045Z,2.67
2019-05-12T03:11:10.958Z,2.17
2019-05-12T03:13:44.686Z,3.40
2019-05-12T03:16:15.174Z,3.87
2019-05-12T03:18:46.086Z,2.33
2019-05-12T03:21:17.113Z,3.57
2019-05-12T03:23:47.971Z,2.87
2019-05-12T03:26:18.835Z,2.83
2019-05-12T03:28:49.563Z,5.00
2019-05-12T03:31:29.326Z,4.00
2019-05-12T03:33:59.556Z,2.30
2019-05-12T03:36:31.928Z,3.07
2019-05-12T03:38:57.783Z,4.60
2019-05-12T03:41:28.649Z,2.80
2019-05-12T03:43:59.304Z,3.73
2019-05-12T03:46:30.172Z,3.00
2019-05-12T03:49:24.512Z,3.17
2019-05-12T03:51:54.359Z,3.13
2019-05-12T03:54:25.285Z,2.73
2019-05-12T03:56:56.100Z,2.97
2019-05-12T03:59:26.944Z,3.53
2019-05-12T04:01:57.814Z,2.93
2019-05-12T04:04:28.704Z,5.73
2019-05-12T04:06:59.545Z,5.60
2019-05-12T04:09:30.240Z,3.57
2019-05-12T04:12:00.905Z,3.40
2019-05-12T04:14:34.399Z,4.33
2019-05-12T04:17:04.839Z,3.10
2019-05-12T04:19:35.989Z,4.20
2019-05-12T04:22:06.855Z,2.67
2019-05-12T04:24:37.945Z,2.80
2019-05-12T04:27:08.850Z,3.50
2019-05-12T04:29:39.624Z,2.97
2019-05-12T04:32:10.349Z,2.90
2019-05-12T04:34:44.532Z,2.97
2019-05-12T04:37:14.776Z,4.03
2019-05-12T04:39:45.828Z,3.80
2019-05-12T04:42:16.618Z,2.80
2019-05-12T04:44:47.369Z,4.87
2019-05-12T04:47:18.339Z,3.00
2019-05-12T04:49:49.152Z,3.20
2019-05-12T04:52:20.005Z,2.77
2019-05-12T04:54:50.925Z,3.17
2019-05-12T04:57:21.721Z,3.73
2019-05-12T04:59:54.355Z,3.10
2019-05-12T05:02:25.350Z,3.40
2019-05-12T05:04:56.228Z,2.30
2019-05-12T05:07:27.019Z,1.50
2019-05-12T05:09:57.848Z,2.77
2019-05-12T05:12:28.704Z,3.00
2019-05-12T05:14:59.574Z,1.50
2019-05-12T05:17:30.409Z,4.07
2019-05-12T05:20:01.150Z,0.97
2019-05-12T05:22:33.322Z,1.37
2019-05-12T05:25:04.403Z,2.37
2019-05-12T05:27:35.289Z,0.97
2019-05-12T05:30:06.809Z,1.67
2019-05-12T05:32:37.528Z,3.50
2019-05-12T05:35:08.359Z,0.97
2019-05-12T05:37:41.507Z,3.33
2019-05-12T05:40:14.078Z,1.23
2019-05-12T05:42:44.789Z,1.03
2019-05-12T05:45:22.153Z,0.70
2019-05-12T05:47:49.444Z,2.30
2019-05-12T05:50:25.113Z,0.50
2019-05-12T05:52:54.266Z,1.90
2019-05-12T05:55:25.324Z,0.50
2019-05-12T05:57:59.835Z,3.13
2019-05-12T06:00:29.144Z,2.17
2019-05-12T06:03:00.391Z,0.30
2019-05-12T06:05:31.194Z,1.30
2019-05-12T06:08:03.985Z,0.50
2019-05-12T06:10:36.290Z,0.20
2019-05-12T06:13:07.074Z,0.57
2019-05-12T06:15:40.558Z,0.30
2019-05-12T06:18:13.412Z,3.90
2019-05-12T06:20:43.812Z,0.20
2019-05-12T06:23:15.100Z,0.30
2019-05-12T06:25:51.153Z,1.80
2019-05-12T06:28:18.829Z,0.37
2019-05-12T06:30:50.329Z,0.20
2019-05-12T06:33:22.702Z,0.40
2019-05-12T06:35:54.385Z,0.30
2019-05-12T06:38:25.234Z,1.23
2019-05-12T06:40:55.884Z,0.27
2019-05-12T06:43:29.234Z,2.47
2019-05-12T06:45:59.239Z,1.60
2019-05-12T06:48:30.386Z,1.90
2019-05-12T06:51:01.329Z,1.70
2019-05-12T06:53:33.661Z,0.67
2019-05-12T06:56:09.396Z,0.33
2019-05-12T06:58:37.514Z,0.73
2019-05-12T07:01:10.967Z,0.30
2019-05-12T07:03:41.431Z,15.23
2019-05-12T07:06:18.260Z,4.90
2019-05-12T07:08:44.839Z,0.43
2019-05-12T07:11:15.749Z,5.47
2019-05-12T07:13:46.769Z,0.67
2019-05-12T07:16:23.156Z,1.53
2019-05-12T07:18:51.054Z,1.53
2019-05-12T07:21:24.867Z,2.10
2019-05-12T07:24:00.307Z,92.77
2019-05-12T07:26:29.244Z,1.47
2019-05-12T07:29:00.419Z,14.97
2019-05-12T07:31:33.653Z,2.77
2019-05-12T07:34:07.725Z,3.30
2019-05-12T07:36:38.779Z,78.63
2019-05-12T07:39:10.109Z,47.97
2019-05-12T07:41:50.397Z,28.53
2019-05-12T07:44:15.779Z,1.97
2019-05-12T07:46:49.486Z,11.73
2019-05-12T07:49:22.711Z,2.03
2019-05-12T07:51:54.217Z,96.07
2019-05-12T07:54:29.355Z,186.37
2019-05-12T07:56:57.672Z,9.50
2019-05-12T07:59:38.955Z,3.47
2019-05-12T08:02:03.913Z,4.83
2019-05-12T08:04:39.722Z,4.43
2019-05-12T08:07:07.010Z,0.97
2019-05-12T08:09:38.277Z,1.07
2019-05-12T08:12:19.436Z,27.57
2019-05-12T08:14:43.974Z,67.53
2019-05-12T08:17:19.233Z,4.00
2019-05-12T08:19:47.539Z,3.90
2019-05-12T08:22:18.774Z,9.53
2019-05-12T08:24:53.210Z,72.30
2019-05-12T08:27:23.557Z,20.53
2019-05-12T08:30:00.962Z,2.90
2019-05-12T08:32:27.292Z,3.73
2019-05-12T08:34:58.554Z,12.47
2019-05-12T08:37:29.553Z,1.80
2019-05-12T08:40:04.280Z,2.60
2019-05-12T08:42:34.446Z,0.83
2019-05-12T08:45:08.198Z,0.70
2019-05-12T08:47:38.976Z,0.97
2019-05-12T08:50:10.657Z,12.07
2019-05-12T08:52:44.269Z,19.20
2019-05-12T08:55:16.850Z,7.30
2019-05-12T08:57:49.572Z,7.53
2019-05-12T09:00:47.455Z,8.03
2019-05-12T09:03:14.126Z,1.80
2019-05-12T09:05:45.559Z,1.10
2019-05-12T09:08:16.754Z,2.80
2019-05-12T09:10:48.274Z,0.50
2019-05-12T09:13:19.444Z,0.67
2019-05-12T09:15:50.575Z,2.20
2019-05-12T09:18:23.531Z,0.53
2019-05-12T09:20:55.677Z,0.93
2019-05-12T09:23:26.674Z,4.70
2019-05-12T09:25:57.829Z,2.43
2019-05-12T09:28:28.531Z,2.33
2019-05-12T09:30:59.329Z,2.93
2019-05-12T09:33:32.449Z,2.23
2019-05-12T09:36:04.401Z,3.07
2019-05-12T09:38:35.864Z,1.07
2019-05-12T09:41:06.790Z,0.40
2019-05-12T09:43:40.256Z,5.03
2019-05-12T09:46:10.434Z,0.77
2019-05-12T09:48:46.905Z,0.50
2019-05-12T09:51:16.930Z,0.10
2019-05-12T09:53:50.850Z,2.30
2019-05-12T09:56:18.941Z,0.10
2019-05-12T09:58:59.095Z,0.50
2019-05-12T10:01:24.218Z,0.00
2019-05-12T10:03:55.391Z,0.10
2019-05-12T10:06:26.400Z,0.30
2019-05-12T10:08:57.161Z,0.13
2019-05-12T10:11:27.979Z,4.57
2019-05-12T10:14:00.457Z,37.13
2019-05-12T10:16:33.275Z,417.13
2019-05-12T10:19:04.087Z,17.13
2019-05-12T10:21:36.073Z,10.60
2019-05-12T10:24:07.014Z,2.37
2019-05-12T10:26:41.172Z,3.10
2019-05-12T10:29:18.791Z,12.17
2019-05-12T10:31:44.642Z,16.30
2019-05-12T10:34:24.041Z,2.20
2019-05-12T10:36:54.654Z,2.13
2019-05-12T10:39:25.789Z,1.27
2019-05-12T10:41:57.779Z,43.37
2019-05-12T10:44:30.110Z,3.07
2019-05-12T10:47:04.460Z,0.90
2019-05-12T10:49:35.371Z,0.20
2019-05-12T10:52:06.520Z,1.70
2019-05-12T10:54:37.389Z,0.10
2019-05-12T10:57:08.200Z,2.03
2019-05-12T10:59:46.846Z,8.47
2019-05-12T11:02:13.820Z,2.20
2019-05-12T11:04:44.160Z,1.90
2019-05-12T11:07:15.260Z,0.23
2019-05-12T11:09:46.224Z,1.27
2019-05-12T11:12:19.017Z,1.40
2019-05-12T11:14:49.559Z,9.73
2019-05-12T11:17:20.474Z,16.93
2019-05-12T11:19:53.648Z,9.47
2019-05-12T11:22:24.100Z,2.80
2019-05-12T11:24:55.839Z,38.77
2019-05-12T11:27:26.845Z,164.37
2019-05-12T11:29:59.019Z,141.67
2019-05-12T11:32:34.880Z,202.50
2019-05-12T11:35:04.100Z,111.90
2019-05-12T11:37:35.109Z,1260.57
2019-05-12T11:40:06.544Z,942.27
2019-05-12T11:42:37.334Z,520.87
2019-05-12T11:45:08.949Z,141.97
2019-05-12T11:47:39.920Z,127.57
2019-05-12T11:50:13.075Z,87.10
2019-05-12T11:52:46.018Z,99.57
2019-05-12T11:55:15.810Z,263.60
2019-05-12T11:57:46.669Z,13.10
2019-05-12T12:00:19.944Z,2.20
2019-05-12T12:02:50.680Z,44.30
2019-05-12T12:05:23.403Z,17.77
2019-05-12T12:07:56.135Z,6.43
2019-05-12T12:10:29.394Z,44.43
2019-05-12T12:12:58.669Z,23.30
2019-05-12T12:15:30.408Z,1.00
2019-05-12T12:18:04.023Z,3.10
2019-05-12T12:20:33.968Z,3.37
2019-05-12T12:23:10.831Z,0.57
2019-05-12T12:25:37.393Z,9.63
2019-05-12T12:28:08.085Z,1.27
2019-05-12T12:30:38.789Z,1.23
2019-05-12T12:33:09.519Z,0.80
2019-05-12T12:35:40.339Z,2.30
2019-05-12T12:38:11.115Z,1.97
2019-05-12T12:40:43.657Z,0.50
2019-05-12T12:43:14.444Z,0.40
2019-05-12T12:45:56.679Z,2.33
2019-05-12T12:48:29.811Z,0.30
2019-05-12T12:51:00.114Z,24.97
2019-05-12T12:53:30.969Z,13.47
2019-05-12T12:56:04.147Z,17.27
2019-05-12T12:58:34.681Z,7.97
2019-05-12T13:01:06.024Z,0.33
2019-05-12T13:03:36.835Z,0.50
2019-05-12T13:06:07.679Z,5.40
2019-05-12T13:08:38.469Z,1.20
2019-05-12T13:11:09.163Z,9.40
2019-05-12T13:13:39.893Z,3.57
2019-05-12T13:16:10.649Z,2.37
2019-05-12T13:18:43.438Z,1.33
2019-05-12T13:21:14.054Z,16.70
2019-05-12T13:23:45.381Z,4.67
2019-05-12T13:26:16.459Z,1.23
2019-05-12T13:28:53.451Z,7.63
2019-05-12T13:31:19.719Z,0.40
2019-05-12T13:33:54.896Z,0.20
2019-05-12T13:36:24.192Z,2.73
2019-05-12T13:38:55.385Z,0.60
2019-05-12T13:41:26.654Z,1.13
2019-05-12T13:43:59.958Z,1.33
2019-05-12T13:46:30.014Z,2.23
2019-05-12T13:49:03.054Z,57.37
2019-05-12T13:51:33.430Z,59.17
2019-05-12T13:54:04.369Z,2.30
2019-05-12T13:56:35.796Z,0.13
2019-05-12T13:59:06.734Z,0.20
2019-05-12T14:01:40.120Z,0.20
2019-05-12T14:04:10.109Z,0.20
2019-05-12T14:06:40.920Z,0.20
2019-05-12T14:09:13.607Z,0.20
2019-05-12T14:11:44.479Z,0.93
2019-05-12T14:14:15.748Z,0.20
2019-05-12T14:16:57.456Z,1.03
2019-05-12T14:19:19.035Z,0.00
2019-05-12T14:21:49.899Z,0.27
2019-05-12T14:24:20.664Z,0.63
2019-05-12T14:26:53.409Z,0.37
2019-05-12T14:29:26.564Z,0.10
2019-05-12T14:32:02.145Z,0.50
2019-05-12T14:34:29.039Z,0.50
2019-05-12T14:37:06.922Z,1.50
2019-05-12T14:39:34.351Z,1.63
2019-05-12T14:42:04.870Z,0.10
2019-05-12T14:44:43.881Z,0.10
2019-05-12T14:47:08.414Z,0.40
2019-05-12T14:49:39.204Z,0.20
2019-05-12T14:52:09.959Z,0.20
2019-05-12T14:54:40.830Z,0.20
2019-05-12T14:57:13.765Z,0.10
2019-05-12T14:59:44.499Z,0.10
2019-05-12T15:02:19.515Z,0.13
2019-05-12T15:04:47.494Z,0.20
2019-05-12T15:07:18.229Z,0.20
2019-05-12T15:09:53.878Z,0.20
2019-05-12T15:12:21.559Z,6.07
2019-05-12T15:14:54.217Z,8.73
2019-05-12T15:17:24.716Z,0.10
2019-05-12T15:20:00.144Z,0.13
2019-05-12T15:22:27.890Z,0.20
2019-05-12T15:24:59.175Z,0.63
2019-05-12T15:27:42.378Z,0.83
2019-05-12T15:30:04.164Z,1.10
2019-05-12T15:32:35.066Z,0.10
2019-05-12T15:35:05.809Z,1.43
2019-05-12T15:37:39.112Z,0.20
2019-05-12T15:40:10.199Z,0.60
2019-05-12T15:42:41.249Z,0.20
2019-05-12T15:45:16.570Z,0.10
2019-05-12T15:47:45.289Z,0.50
2019-05-12T15:50:16.684Z,0.30
2019-05-12T15:52:47.664Z,0.10
2019-05-12T15:55:18.714Z,1.77
2019-05-12T15:57:50.944Z,2.20
2019-05-12T16:00:24.356Z,0.20
2019-05-12T16:02:54.900Z,0.20
2019-05-12T16:05:30.835Z,0.40
2019-05-12T16:07:58.264Z,0.87
2019-05-12T16:10:29.189Z,0.20
2019-05-12T16:13:00.099Z,0.37
2019-05-12T16:15:30.829Z,0.20
2019-05-12T16:18:08.183Z,0.20
2019-05-12T16:20:34.154Z,0.20
2019-05-12T16:23:05.085Z,0.77
2019-05-12T16:25:35.914Z,0.10
2019-05-12T16:28:07.738Z,0.30
2019-05-12T16:30:39.419Z,2.87
2019-05-12T16:33:14.402Z,0.63
2019-05-12T16:35:44.190Z,1.23
2019-05-12T16:38:19.871Z,1.13
2019-05-12T16:40:49.766Z,0.50
2019-05-12T16:43:20.481Z,0.17
2019-05-12T16:45:53.616Z,0.60
2019-05-12T16:48:30.202Z,0.10
2019-05-12T16:50:56.920Z,0.30
2019-05-12T16:53:28.092Z,0.10
2019-05-12T16:55:58.879Z,1.13
2019-05-12T16:58:32.815Z,0.57
2019-05-12T17:01:03.799Z,0.17
2019-05-12T17:03:34.845Z,0.17
2019-05-12T17:06:05.796Z,0.17
2019-05-12T17:08:36.614Z,0.20
2019-05-12T17:11:23.238Z,0.10
2019-05-12T17:13:39.789Z,0.53
2019-05-12T17:16:10.690Z,0.20
2019-05-12T17:18:44.149Z,0.20
2019-05-12T17:21:14.464Z,0.37
2019-05-12T17:23:45.529Z,0.53
2019-05-12T17:26:16.444Z,0.20
2019-05-12T17:28:47.325Z,1.70
2019-05-12T17:31:18.259Z,0.40
2019-05-12T17:33:48.974Z,2.37
2019-05-12T17:36:19.834Z,0.30
2019-05-12T17:38:51.189Z,0.30
2019-05-12T17:41:23.622Z,0.20
2019-05-12T17:44:00.899Z,1.27
2019-05-12T17:46:26.985Z,0.90
2019-05-12T17:48:57.970Z,0.20
2019-05-12T17:51:30.925Z,0.43
2019-05-12T17:54:06.208Z,0.20
2019-05-12T17:56:38.417Z,6.83
2019-05-12T17:59:06.069Z,0.83
2019-05-12T18:01:37.295Z,0.93
2019-05-12T18:04:08.145Z,0.20
2019-05-12T18:06:38.984Z,1.63
2019-05-12T18:09:15.696Z,0.33
2019-05-12T18:11:46.070Z,0.30
2019-05-12T18:14:15.774Z,0.30
2019-05-12T18:16:46.508Z,1.90
2019-05-12T18:19:19.527Z,0.77
2019-05-12T18:21:54.982Z,0.60
2019-05-12T18:24:24.102Z,0.70
2019-05-12T18:27:00.135Z,0.80
2019-05-12T18:29:27.130Z,1.00
2019-05-12T18:31:58.040Z,1.07
2019-05-12T18:34:28.779Z,0.83
2019-05-12T18:37:00.105Z,2.00
2019-05-12T18:39:31.269Z,0.90
2019-05-12T18:42:03.534Z,0.70
2019-05-12T18:44:34.625Z,1.73
2019-05-12T18:47:05.729Z,0.40
2019-05-12T18:49:36.545Z,0.97
2019-05-12T18:52:07.399Z,0.90
2019-05-12T18:54:45.597Z,0.80
2019-05-12T18:57:10.590Z,4.37
2019-05-12T18:59:46.063Z,2.23
2019-05-12T19:02:22.812Z,1.23
2019-05-12T19:04:46.908Z,0.80
2019-05-12T19:07:17.794Z,0.70
2019-05-12T19:09:49.101Z,0.27
2019-05-12T19:12:22.558Z,1.30
2019-05-12T19:14:54.752Z,0.50
2019-05-12T19:17:25.884Z,2.50
2019-05-12T19:20:00.064Z,0.50
2019-05-12T19:22:29.137Z,0.40
2019-05-12T19:25:00.210Z,0.30
2019-05-12T19:27:31.094Z,0.33
2019-05-12T19:30:04.149Z,3.60
2019-05-12T19:32:36.838Z,0.83
2019-05-12T19:35:09.521Z,0.43
2019-05-12T19:37:42.330Z,3.27
2019-05-12T19:40:14.374Z,1.20
2019-05-12T19:42:44.316Z,0.70
2019-05-12T19:45:21.317Z,1.43
2019-05-12T19:47:49.224Z,0.73
2019-05-12T19:50:20.280Z,0.40
2019-05-12T19:52:51.019Z,0.40
2019-05-12T19:55:24.018Z,1.47
2019-05-12T19:57:54.571Z,0.43
2019-05-12T20:00:25.464Z,3.00
2019-05-12T20:02:56.404Z,0.50
2019-05-12T20:05:27.189Z,0.60
2019-05-12T20:07:58.144Z,0.70
2019-05-12T20:10:29.150Z,1.30
2019-05-12T20:12:59.979Z,1.10
2019-05-12T20:15:36.616Z,1.07
2019-05-12T20:18:04.310Z,0.70
2019-05-12T20:20:40.939Z,0.40
2019-05-12T20:23:07.839Z,0.60
2019-05-12T20:25:38.543Z,0.67
2019-05-12T20:28:11.300Z,0.47
2019-05-12T20:30:43.654Z,0.93
2019-05-12T20:33:14.125Z,0.40
2019-05-12T20:35:49.095Z,0.40
2019-05-12T20:38:17.339Z,0.53
2019-05-12T20:40:48.167Z,0.60
2019-05-12T20:43:23.984Z,1.30
2019-05-12T20:45:51.779Z,0.30
2019-05-12T20:48:26.479Z,1.60
2019-05-12T20:50:55.062Z,0.43
2019-05-12T20:53:31.723Z,0.80
2019-05-12T20:55:58.200Z,0.37
2019-05-12T20:58:35.330Z,0.20
2019-05-12T21:01:02.885Z,3.40
2019-05-12T21:03:33.729Z,0.20
2019-05-12T21:06:04.604Z,0.47
2019-05-12T21:08:35.399Z,0.40
2019-05-12T21:11:06.334Z,2.97
2019-05-12T21:13:37.171Z,0.37
2019-05-12T21:16:16.484Z,2.77
2019-05-12T21:18:50.364Z,0.50
2019-05-12T21:21:15.738Z,0.30
2019-05-12T21:23:53.711Z,0.53
2019-05-12T21:26:19.444Z,0.40
2019-05-12T21:28:53.877Z,0.50
2019-05-12T21:31:28.996Z,0.43
2019-05-12T21:33:59.304Z,2.00
2019-05-12T21:36:30.093Z,0.50
2019-05-12T21:39:08.363Z,0.67
2019-05-12T21:41:34.478Z,1.57
2019-05-12T21:44:10.872Z,0.47
2019-05-12T21:46:38.410Z,0.50
2019-05-12T21:49:12.036Z,0.40
2019-05-12T21:51:44.460Z,1.30
2019-05-12T21:54:14.284Z,0.70
2019-05-12T21:56:49.172Z,0.77
2019-05-12T21:59:17.479Z,1.07
2019-05-12T22:01:49.093Z,0.80
2019-05-12T22:04:19.830Z,0.67
2019-05-12T22:06:51.273Z,1.90
2019-05-12T22:09:23.984Z,1.67
2019-05-12T22:11:56.323Z,0.87
2019-05-12T22:14:30.573Z,1.33
2019-05-12T22:17:01.213Z,0.80
2019-05-12T22:19:37.631Z,1.07
2019-05-12T22:22:04.474Z,1.10
2019-05-12T22:24:38.726Z,1.00
2019-05-12T22:27:07.649Z,2.30
2019-05-12T22:29:38.400Z,1.40
2019-05-12T22:32:09.199Z,1.30
2019-05-12T22:34:41.960Z,0.90
2019-05-12T22:37:13.603Z,1.10
2019-05-12T22:39:44.622Z,0.80
2019-05-12T22:42:20.175Z,2.10
2019-05-12T22:44:53.027Z,1.00
2019-05-12T22:47:20.443Z,0.80
2019-05-12T22:49:55.323Z,0.77
2019-05-12T22:52:24.025Z,1.17
2019-05-12T22:54:54.849Z,0.90
2019-05-12T22:57:29.134Z,0.73
2019-05-12T22:59:57.802Z,0.73
2019-05-12T23:02:30.113Z,0.93
2019-05-12T23:05:03.105Z,1.03
2019-05-12T23:07:33.585Z,1.27
2019-05-12T23:10:06.919Z,1.03
2019-05-12T23:12:37.579Z,3.23
2019-05-12T23:15:08.594Z,0.80
2019-05-12T23:17:45.147Z,0.50
2019-05-12T23:20:13.700Z,1.03
2019-05-12T23:22:44.524Z,2.23
2019-05-12T23:25:20.038Z,0.73
2019-05-12T23:27:47.714Z,0.50
2019-05-12T23:30:18.368Z,2.23
2019-05-12T23:32:51.585Z,2.30
2019-05-12T23:35:21.617Z,0.40
2019-05-12T23:37:53.589Z,0.33
2019-05-12T23:40:24.460Z,0.30
2019-05-12T23:42:55.268Z,0.30
2019-05-12T23:45:26.083Z,1.20
2019-05-12T23:47:56.919Z,0.53
2019-05-12T23:50:27.963Z,0.30
2019-05-12T23:52:58.789Z,1.20
2019-05-12T23:55:29.704Z,0.70
2019-05-12T23:58:00.608Z,0.30
